Time;durP1;ratioP1;P1;durP2;ratioP2;P2;SDS_P1;SDS_P2;PMS_P1;PMS_P2;Temp;Humidity;BMP_temperature;BMP_pressure;BME280_temperature;BME280_humidity;BME280_pressure;Samples;Min_cycle;Max_cycle;Signal;HPM_P1;HPM_P2
2023/04/01 00:00:58;;;;;;;;;;;;;;;;;;7369470;19;810;-67
2023/04/01 00:03:26;;;;;;;;;;;;;;;;;;7368180;19;1857;-65
2023/04/01 00:05:55;;;;;;;;;;;;;;;;;;7368961;19;1281;-65
2023/04/01 00:08:23;;;;;;;;;;;;;;;;;;7368268;19;794;-66
2023/04/01 00:10:51;;;;;;;;;;;;;;;;;;7368726;19;801;-66
2023/04/01 00:13:19;;;;;;;;;;;;;;;;;;7369093;19;810;-67
2023/04/01 00:15:47;;;;;;;;;;;;;;;;;;7368813;19;1332;-67
2023/04/01 00:18:16;;;;;;;;;;;;;;;;;;7366993;19;834;-66
2023/04/01 00:20:44;;;;;;;;;;;;;;;;;;7367281;19;866;-66
2023/04/01 00:23:12;;;;;;;;;;;;;;;;;;7367080;19;1838;-67
2023/04/01 00:25:40;;;;;;;;;;;;;;;;;;7368567;19;774;-67
2023/04/01 00:28:08;;;;;;;;;;;;;;;;;;7365680;19;1352;-69
2023/04/01 00:30:36;;;;;;;;;;;;;;;;;;7368081;19;952;-67
2023/04/01 00:33:05;;;;;;;;;;;;;;;;;;7368957;19;939;-68
2023/04/01 00:35:33;;;;;;;;;;;;;;;;;;7368529;19;755;-68
2023/04/01 00:38:01;;;;;;;;;;;;;;;;;;7365506;19;1270;-66
2023/04/01 00:40:29;;;;;;;;;;;;;;;;;;7368873;19;915;-67
2023/04/01 00:42:58;;;;;;;;;;;;;;;;;;7367218;19;1834;-67
2023/04/01 00:45:26;;;;;;;;;;;;;;;;;;7366808;19;835;-66
2023/04/01 00:47:54;;;;;;;;;;;;;;;;;;7363784;19;1298;-67
2023/04/01 00:50:22;;;;;;;;;;;;;;;;;;7366866;19;762;-68
2023/04/01 00:52:50;;;;;;;;;;;;;;;;;;7366900;19;779;-67
2023/04/01 00:55:19;;;;;;;;;;;;;;;;;;7366862;19;814;-69
2023/04/01 00:57:47;;;;;;;;;;;;;;;;;;7364926;19;1345;-70
2023/04/01 01:00:15;;;;;;;;;;;;;;;;;;7366276;19;864;-68
2023/04/01 01:02:43;;;;;;;;;;;;;;;;;;7365468;19;1838;-68
2023/04/01 01:05:11;;;;;;;;;;;;;;;;;;7366452;19;813;-68
2023/04/01 01:07:40;;;;;;;;;;;;;;;;;;7363507;19;1331;-68
2023/04/01 01:10:08;;;;;;;;;;;;;;;;;;7366630;19;846;-68
2023/04/01 01:12:36;;;;;;;;;;;;;;;;;;7365939;19;791;-67
2023/04/01 01:15:04;;;;;;;;;;;;;;;;;;7367482;19;739;-67
2023/04/01 01:17:32;;;;;;;;;;;;;;;;;;7363780;19;1278;-67
2023/04/01 01:20:01;;;;;;;;;;;;;;;;;;7365542;19;815;-67
2023/04/01 01:22:29;;;;;;;;;;;;;;;;;;7365109;19;1858;-67
2023/04/01 01:24:58;;;;;;;;;;;;;;;;;;7366647;19;837;-69
2023/04/01 01:27:26;;;;;;;;;;;;;;;;;;7363847;19;1347;-68
2023/04/01 01:29:54;;;;;;;;;;;;;;;;;;7365384;19;799;-68
2023/04/01 01:32:22;;;;;;;;;;;;;;;;;;7365430;19;820;-68
2023/04/01 01:34:51;;;;;;;;;;;;;;;;;;7366465;19;830;-66
2023/04/01 01:37:20;;;;;;;;;;;;;;;;;;7365011;19;1282;-67
2023/04/01 01:39:48;;;;;;;;;;;;;;;;;;7365020;19;865;-66
2023/04/01 01:42:16;;;;;;;;;;;;;;;;;;7365392;19;1941;-66
2023/04/01 01:44:44;;;;;;;;;;;;;;;;;;7365045;19;846;-68
2023/04/01 01:47:12;;;;;;;;;;;;;;;;;;7363264;19;1274;-68
2023/04/01 01:49:40;;;;;;;;;;;;;;;;;;7365811;19;1502;-68
2023/04/01 01:52:08;;;;;;;;;;;;;;;;;;7365591;19;865;-68
2023/04/01 01:54:37;;;;;;;;;;;;;;;;;;7365087;19;799;-66
2023/04/01 01:57:06;;;;;;;;;;;;;;;;;;7362325;19;1235;-66
2023/04/01 01:59:34;;;;;;;;;;;;;;;;;;7363510;19;849;-65
2023/04/01 02:02:07;;;;;;;;;;;;;;;;;;7363892;19;845;-65
2023/04/01 02:04:35;;;;;;;;;;;;;;;;;;7363560;19;1846;-65
2023/04/01 02:07:03;;;;;;;;;;;;;;;;;;7366274;19;1333;-66
2023/04/01 02:09:34;;;;;;;;;;;;;;;;;;7365627;19;861;-65
2023/04/01 02:12:02;;;;;;;;;;;;;;;;;;7364695;19;728;-66
2023/04/01 02:14:33;;;;;;;;;;;;;;;;;;7363694;19;735;-68
2023/04/01 02:17:01;;;;;;;;;;;;;;;;;;7362642;19;1278;-67
2023/04/01 02:19:29;;;;;;;;;;;;;;;;;;7363535;19;813;-67
2023/04/01 02:21:58;;;;;;;;;;;;;;;;;;7364095;19;854;-65
2023/04/01 02:24:26;;;;;;;;;;;;;;;;;;7360559;19;2234;-65
2023/04/01 02:26:54;;;;;;;;;;;;;;;;;;7363269;19;1278;-65
2023/04/01 02:29:22;;;;;;;;;;;;;;;;;;7363410;19;795;-66
2023/04/01 02:31:51;;;;;;;;;;;;;;;;;;7364198;19;853;-65
2023/04/01 02:34:19;;;;;;;;;;;;;;;;;;7363932;19;924;-67
2023/04/01 02:36:47;;;;;;;;;;;;;;;;;;7362096;19;1309;-65
2023/04/01 02:39:15;;;;;;;;;;;;;;;;;;7363281;19;902;-66
2023/04/01 02:41:43;;;;;;;;;;;;;;;;;;7365116;19;823;-66
2023/04/01 02:44:11;;;;;;;;;;;;;;;;;;7359673;19;1856;-65
2023/04/01 02:46:40;;;;;;;;;;;;;;;;;;7362765;19;1266;-65
2023/04/01 02:49:08;;;;;;;;;;;;;;;;;;7363013;19;768;-66
2023/04/01 02:51:36;;;;;;;;;;;;;;;;;;7365214;19;849;-66
2023/04/01 02:54:04;;;;;;;;;;;;;;;;;;7363706;19;843;-67
2023/04/01 02:56:32;;;;;;;;;;;;;;;;;;7362478;19;1348;-68
2023/04/01 02:59:00;;;;;;;;;;;;;;;;;;7364089;19;794;-67
2023/04/01 03:01:29;;;;;;;;;;;;;;;;;;7363216;19;854;-67
2023/04/01 03:03:57;;;;;;;;;;;;;;;;;;7361906;19;1838;-67
2023/04/01 03:06:25;;;;;;;;;;;;;;;;;;7362861;19;1270;-65
2023/04/01 03:08:53;;;;;;;;;;;;;;;;;;7364192;19;795;-66
2023/04/01 03:11:21;;;;;;;;;;;;;;;;;;7363513;19;793;-65
2023/04/01 03:13:50;;;;;;;;;;;;;;;;;;7364985;19;862;-65
2023/04/01 03:16:18;;;;;;;;;;;;;;;;;;7362848;19;1353;-65
2023/04/01 03:18:46;;;;;;;;;;;;;;;;;;7364431;19;866;-65
2023/04/01 03:21:14;;;;;;;;;;;;;;;;;;7363630;19;801;-64
2023/04/01 03:23:42;;;;;;;;;;;;;;;;;;7363105;19;1849;-65
2023/04/01 03:26:10;;;;;;;;;;;;;;;;;;7361857;19;1269;-64
2023/04/01 03:28:39;;;;;;;;;;;;;;;;;;7361454;19;815;-65
2023/04/01 03:31:07;;;;;;;;;;;;;;;;;;7363141;19;852;-63
2023/04/01 03:33:42;;;;;;;;;;;;;;;;;;7362156;19;734;-64
2023/04/01 03:36:12;;;;;;;;;;;;;;;;;;7363625;19;1278;-64
2023/04/01 03:38:40;;;;;;;;;;;;;;;;;;7362281;19;930;-65
2023/04/01 03:41:08;;;;;;;;;;;;;;;;;;7364340;19;834;-64
2023/04/01 03:43:36;;;;;;;;;;;;;;;;;;7361814;19;1868;-62
2023/04/01 03:46:06;;;;;;;;;;;;;;;;;;7360352;19;1357;-64
2023/04/01 03:48:34;;;;;;;;;;;;;;;;;;7360780;19;799;-64
2023/04/01 03:51:02;;;;;;;;;;;;;;;;;;7361752;19;810;-64
2023/04/01 03:53:32;;;;;;;;;;;;;;;;;;7360939;19;898;-66
2023/04/01 03:56:02;;;;;;;;;;;;;;;;;;7361107;19;1262;-66
2023/04/01 03:58:30;;;;;;;;;;;;;;;;;;7367195;19;724;-65
2023/04/01 04:00:59;;;;;;;;;;;;;;;;;;7367213;19;886;-64
2023/04/01 04:03:27;;;;;;;;;;;;;;;;;;7368615;19;1845;-65
2023/04/01 04:05:56;;;;;;;;;;;;;;;;;;7368070;19;1274;-65
2023/04/01 04:08:24;;;;;;;;;;;;;;;;;;7372117;19;2147;-66
2023/04/01 04:10:52;;;;;;;;;;;;;;;;;;7366969;19;782;-67
2023/04/01 04:13:21;;;;;;;;;;;;;;;;;;7367034;19;756;-64
2023/04/01 04:15:55;;;;;;;;;;;;;;;;;;7367302;19;1297;-65
2023/04/01 04:18:24;;;;;;;;;;;;;;;;;;7367670;19;825;-64
2023/04/01 04:20:52;;;;;;;;;;;;;;;;;;7366961;19;850;-65
2023/04/01 04:23:21;;;;;;;;;;;;;;;;;;7367119;19;1871;-66
2023/04/01 04:25:49;;;;;;;;;;;;;;;;;;7366382;19;1274;-65
2023/04/01 04:28:17;;;;;;;;;;;;;;;;;;7366483;19;782;-64
2023/04/01 04:30:45;;;;;;;;;;;;;;;;;;7366246;19;780;-66
2023/04/01 04:33:14;;;;;;;;;;;;;;;;;;7367000;19;782;-65
2023/04/01 04:35:42;;;;;;;;;;;;;;;;;;7366438;19;846;-65
2023/04/01 04:38:10;;;;;;;;;;;;;;;;;;7363321;19;1376;-66
2023/04/01 04:40:39;;;;;;;;;;;;;;;;;;7366267;19;779;-66
2023/04/01 04:43:07;;;;;;;;;;;;;;;;;;7366899;19;1871;-65
2023/04/01 04:45:35;;;;;;;;;;;;;;;;;;7369613;19;811;-65
2023/04/01 04:48:05;;;;;;;;;;;;;;;;;;7368242;19;1281;-65
2023/04/01 04:50:33;;;;;;;;;;;;;;;;;;7371776;19;853;-64
2023/04/01 04:53:01;;;;;;;;;;;;;;;;;;7370528;19;776;-64
2023/04/01 04:55:29;;;;;;;;;;;;;;;;;;7368968;19;930;-65
2023/04/01 04:58:16;;;;;;;;;;;;;;;;;;7368641;19;575;-64
2023/04/01 05:00:45;;;;;;;;;;;;;;;;;;7367999;19;847;-64
2023/04/01 05:03:21;;;;;;;;;;;;;;;;;;7366451;19;1853;-65
2023/04/01 05:05:49;;;;;;;;;;;;;;;;;;7365244;19;1302;-66
2023/04/01 05:08:17;;;;;;;;;;;;;;;;;;7365075;19;764;-65
2023/04/01 05:10:45;;;;;;;;;;;;;;;;;;7366261;19;807;-64
2023/04/01 05:13:14;;;;;;;;;;;;;;;;;;7365751;19;818;-65
2023/04/01 05:15:43;;;;;;;;;;;;;;;;;;7365478;19;838;-66
2023/04/01 05:18:11;;;;;;;;;;;;;;;;;;7365531;19;770;-66
2023/04/01 05:20:39;;;;;;;;;;;;;;;;;;7365756;19;914;-65
2023/04/01 05:23:08;;;;;;;;;;;;;;;;;;7366034;19;852;-65
2023/04/01 05:25:36;;;;;;;;;;;;;;;;;;7362551;19;1849;-65
2023/04/01 05:28:04;;;;;;;;;;;;;;;;;;7362806;19;1273;-65
2023/04/01 05:30:32;;;;;;;;;;;;;;;;;;7365061;19;813;-65
2023/04/01 05:33:09;;;;;;;;;;;;;;;;;;7365436;19;720;-65
2023/04/01 05:35:38;;;;;;;;;;;;;;;;;;7364899;19;853;-64
2023/04/01 05:38:06;;;;;;;;;;;;;;;;;;7365009;19;1285;-65
2023/04/01 05:40:34;;;;;;;;;;;;;;;;;;7365347;19;867;-66
2023/04/01 05:43:03;;;;;;;;;;;;;;;;;;7365587;19;760;-65
2023/04/01 05:45:31;;;;;;;;;;;;;;;;;;7362612;19;1829;-65
2023/04/01 05:48:05;;;;;;;;;;;;;;;;;;7363357;19;1333;-68
2023/04/01 05:50:38;;;;;;;;;;;;;;;;;;7364820;19;716;-66
2023/04/01 05:53:07;;;;;;;;;;;;;;;;;;7364940;19;806;-65
2023/04/01 05:55:35;;;;;;;;;;;;;;;;;;7363916;19;846;-66
2023/04/01 05:58:03;;;;;;;;;;;;;;;;;;7360303;19;1345;-65
2023/04/01 06:00:31;;;;;;;;;;;;;;;;;;7364140;19;823;-67
2023/04/01 06:03:01;;;;;;;;;;;;;;;;;;7364288;19;846;-65
2023/04/01 06:05:29;;;;;;;;;;;;;;;;;;7361982;19;1842;-67
2023/04/01 06:07:58;;;;;;;;;;;;;;;;;;7360243;19;1348;-68
2023/04/01 06:10:26;;;;;;;;;;;;;;;;;;7363760;19;795;-67
2023/04/01 06:12:54;;;;;;;;;;;;;;;;;;7363990;19;815;-68
2023/04/01 06:15:22;;;;;;;;;;;;;;;;;;7365120;19;822;-68
2023/04/01 06:17:50;;;;;;;;;;;;;;;;;;7360880;19;1329;-68
2023/04/01 06:20:19;;;;;;;;;;;;;;;;;;7361408;19;808;-68
2023/04/01 06:22:47;;;;;;;;;;;;;;;;;;7362596;19;835;-68
2023/04/01 06:25:15;;;;;;;;;;;;;;;;;;7361352;19;1869;-68
2023/04/01 06:27:44;;;;;;;;;;;;;;;;;;7359758;19;1238;-68
2023/04/01 06:30:12;;;;;;;;;;;;;;;;;;7363633;19;826;-70
2023/04/01 06:32:41;;;;;;;;;;;;;;;;;;7365428;19;855;-69
2023/04/01 06:35:09;;;;;;;;;;;;;;;;;;7363926;19;870;-68
2023/04/01 06:37:39;;;;;;;;;;;;;;;;;;7360827;19;1227;-69
2023/04/01 06:40:08;;;;;;;;;;;;;;;;;;7363707;19;839;-68
2023/04/01 06:42:38;;;;;;;;;;;;;;;;;;7364523;19;791;-69
2023/04/01 06:45:10;;;;;;;;;;;;;;;;;;7361047;19;1856;-69
2023/04/01 06:47:57;;;;;;;;;;;;;;;;;;7361608;19;1407;-69
2023/04/01 06:51:01;;;;;;;;;;;;;;;;;;7361223;19;1162;-67
2023/04/01 06:53:47;;;;;;;;;;;;;;;;;;7363893;19;1179;-66
2023/04/01 06:56:55;;;;;;;;;;;;;;;;;;7358472;19;1299;-66
2023/04/01 06:59:25;;;;;;;;;;;;;;;;;;7360672;19;780;-65
2023/04/01 07:01:53;;;;;;;;;;;;;;;;;;7360840;19;1128;-65
2023/04/01 07:04:22;;;;;;;;;;;;;;;;;;7362156;19;1850;-66
2023/04/01 07:06:50;;;;;;;;;;;;;;;;;;7361234;19;1334;-65
2023/04/01 07:09:18;;;;;;;;;;;;;;;;;;7361631;19;810;-67
2023/04/01 07:12:07;;;;;;;;;;;;;;;;;;7361952;19;1182;-66
2023/04/01 07:15:06;;;;;;;;;;;;;;;;;;7363433;19;1129;-66
2023/04/01 07:17:35;;;;;;;;;;;;;;;;;;7359380;19;1278;-65
2023/04/01 07:20:03;;;;;;;;;;;;;;;;;;7361991;19;754;-65
2023/04/01 07:22:31;;;;;;;;;;;;;;;;;;7360205;19;866;-63
2023/04/01 07:25:16;;;;;;;;;;;;;;;;;;7359370;19;1845;-65
2023/04/01 07:27:47;;;;;;;;;;;;;;;;;;7357028;19;1456;-64
2023/04/01 07:30:15;;;;;;;;;;;;;;;;;;7362698;19;751;-64
2023/04/01 07:32:43;;;;;;;;;;;;;;;;;;7369790;19;750;-63
2023/04/01 07:35:11;;;;;;;;;;;;;;;;;;7368216;19;771;-64
2023/04/01 07:37:39;;;;;;;;;;;;;;;;;;7364977;19;1816;-63
2023/04/01 07:40:07;;;;;;;;;;;;;;;;;;7367160;19;857;-64
2023/04/01 07:42:38;;;;;;;;;;;;;;;;;;7367688;19;720;-65
2023/04/01 07:45:06;;;;;;;;;;;;;;;;;;7365934;19;1837;-64
2023/04/01 07:47:34;;;;;;;;;;;;;;;;;;7366093;19;1337;-66
2023/04/01 07:50:02;;;;;;;;;;;;;;;;;;7369207;19;837;-66
2023/04/01 07:52:33;;;;;;;;;;;;;;;;;;7367354;19;755;-67
2023/04/01 07:55:07;;;;;;;;;;;;;;;;;;7367526;19;662;-67
2023/04/01 07:57:35;;;;;;;;;;;;;;;;;;7364705;19;1308;-65
2023/04/01 08:00:04;;;;;;;;;;;;;;;;;;7367532;19;819;-64
2023/04/01 08:02:44;;;;;;;;;;;;;;;;;;7369836;19;727;-66
2023/04/01 08:05:12;;;;;;;;;;;;;;;;;;7368190;19;1844;-66
2023/04/01 08:07:40;;;;;;;;;;;;;;;;;;7365147;19;1258;-66
2023/04/01 08:10:28;;;;;;;;;;;;;;;;;;7367665;19;1166;-66
2023/04/01 08:13:15;;;;;;;;;;;;;;;;;;7372622;19;1401;-64
2023/04/01 08:16:21;;;;;;;;;;;;;;;;;;7364556;19;1202;-66
2023/04/01 08:18:53;;;;;;;;;;;;;;;;;;7364321;19;760;-66
2023/04/01 08:21:21;;;;;;;;;;;;;;;;;;7365811;19;1264;-65
2023/04/01 08:23:49;;;;;;;;;;;;;;;;;;7367115;19;790;-66
2023/04/01 08:26:17;;;;;;;;;;;;;;;;;;7364396;19;1913;-64
2023/04/01 08:28:46;;;;;;;;;;;;;;;;;;7366586;19;811;-66
2023/04/01 08:31:15;;;;;;;;;;;;;;;;;;7367198;19;893;-64
2023/04/01 08:33:45;;;;;;;;;;;;;;;;;;7366662;19;797;-65
2023/04/01 08:36:14;;;;;;;;;;;;;;;;;;7365523;19;1279;-65
2023/04/01 08:38:45;;;;;;;;;;;;;;;;;;7366713;19;762;-65
2023/04/01 08:41:13;;;;;;;;;;;;;;;;;;7366408;19;782;-65
2023/04/01 08:44:07;;;;;;;;;;;;;;;;;;7367331;19;1085;-63
2023/04/01 08:46:35;;;;;;;;;;;;;;;;;;7363894;19;1858;-64
2023/04/01 08:49:03;;;;;;;;;;;;;;;;;;7366199;19;802;-64
2023/04/01 08:51:32;;;;;;;;;;;;;;;;;;7366435;19;814;-62
2023/04/01 08:54:00;;;;;;;;;;;;;;;;;;7366610;19;873;-64
2023/04/01 08:56:30;;;;;;;;;;;;;;;;;;7365195;19;1338;-64
2023/04/01 08:59:01;;;;;;;;;;;;;;;;;;7368277;19;1899;-66
2023/04/01 09:01:32;;;;;;;;;;;;;;;;;;7371069;19;1786;-68
2023/04/01 09:04:01;;;;;;;;;;;;;;;;;;7365820;19;806;-67
2023/04/01 09:06:30;;;;;;;;;;;;;;;;;;7362936;19;1889;-65
2023/04/01 09:08:58;;;;;;;;;;;;;;;;;;7366738;19;805;-65
2023/04/01 09:11:26;;;;;;;;;;;;;;;;;;7364832;19;757;-65
2023/04/01 09:13:55;;;;;;;;;;;;;;;;;;7367719;19;773;-65
2023/04/01 09:16:23;;;;;;;;;;;;;;;;;;7364146;19;1356;-66
2023/04/01 09:18:51;;;;;;;;;;;;;;;;;;7364531;19;786;-66
2023/04/01 09:21:20;;;;;;;;;;;;;;;;;;7366228;19;845;-66
2023/04/01 09:23:48;;;;;;;;;;;;;;;;;;7365109;19;857;-65
2023/04/01 09:26:16;;;;;;;;;;;;;;;;;;7363482;19;1857;-65
2023/04/01 09:28:44;;;;;;;;;;;;;;;;;;7365251;19;731;-66
2023/04/01 09:31:13;;;;;;;;;;;;;;;;;;7365739;19;823;-65
2023/04/01 09:33:55;;;;;;;;;;;;;;;;;;7365888;19;747;-64
2023/04/01 09:36:32;;;;;;;;;;;;;;;;;;7365040;19;1377;-66
2023/04/01 09:39:00;;;;;;;;;;;;;;;;;;7364178;19;775;-66
2023/04/01 09:41:30;;;;;;;;;;;;;;;;;;7364475;19;888;-65
2023/04/01 09:44:11;;;;;;;;;;;;;;;;;;7364349;19;799;-65
2023/04/01 09:46:50;;;;;;;;;;;;;;;;;;7361850;19;1853;-69
2023/04/01 09:49:18;;;;;;;;;;;;;;;;;;7364455;19;863;-66
2023/04/01 09:51:46;;;;;;;;;;;;;;;;;;7366401;19;779;-65
2023/04/01 09:54:15;;;;;;;;;;;;;;;;;;7365698;19;870;-64
2023/04/01 09:56:43;;;;;;;;;;;;;;;;;;7363981;19;1342;-64
2023/04/01 09:59:12;;;;;;;;;;;;;;;;;;7365595;19;854;-64
2023/04/01 10:01:59;;;;;;;;;;;;;;;;;;7366321;19;700;-65
2023/04/01 10:04:29;;;;;;;;;;;;;;;;;;7366200;19;774;-64
2023/04/01 10:06:58;;;;;;;;;;;;;;;;;;7361234;19;1866;-63
2023/04/01 10:09:26;;;;;;;;;;;;;;;;;;7364322;19;795;-65
2023/04/01 10:11:55;;;;;;;;;;;;;;;;;;7365202;19;901;-65
2023/04/01 10:14:23;;;;;;;;;;;;;;;;;;7365600;19;810;-66
2023/04/01 10:16:51;;;;;;;;;;;;;;;;;;7362541;19;1380;-66
2023/04/01 10:19:19;;;;;;;;;;;;;;;;;;7367984;19;866;-65
2023/04/01 10:21:47;;;;;;;;;;;;;;;;;;7369568;19;887;-66
2023/04/01 10:24:16;;;;;;;;;;;;;;;;;;7367515;19;791;-68
2023/04/01 10:26:44;;;;;;;;;;;;;;;;;;7364288;19;1865;-66
2023/04/01 10:29:30;;;;;;;;;;;;;;;;;;7364277;19;802;-64
2023/04/01 10:32:03;;;;;;;;;;;;;;;;;;7366694;19;795;-65
2023/04/01 10:34:31;;;;;;;;;;;;;;;;;;7363944;19;874;-67
2023/04/01 10:37:02;;;;;;;;;;;;;;;;;;7360699;19;1290;-67
2023/04/01 10:39:36;;;;;;;;;;;;;;;;;;7363517;19;631;-68
2023/04/01 10:42:19;;;;;;;;;;;;;;;;;;7364998;19;842;-69
2023/04/01 10:45:06;;;;;;;;;;;;;;;;;;7365858;19;1834;-67
2023/04/01 10:47:40;;;;;;;;;;;;;;;;;;7361035;19;1278;-71
2023/04/01 10:50:09;;;;;;;;;;;;;;;;;;7363633;19;873;-66
2023/04/01 10:52:38;;;;;;;;;;;;;;;;;;7364578;19;771;-69
2023/04/01 10:55:24;;;;;;;;;;;;;;;;;;7364687;19;762;-67
2023/04/01 10:58:18;;;;;;;;;;;;;;;;;;7363341;19;1091;-66
2023/04/01 11:01:05;;;;;;;;;;;;;;;;;;7364835;19;765;-65
2023/04/01 11:03:51;;;;;;;;;;;;;;;;;;7364020;19;837;-67
2023/04/01 11:06:52;;;;;;;;;;;;;;;;;;7367002;19;1855;-67
2023/04/01 11:09:23;;;;;;;;;;;;;;;;;;7368594;19;881;-68
2023/04/01 11:11:52;;;;;;;;;;;;;;;;;;7368259;19;847;-68
2023/04/01 11:14:20;;;;;;;;;;;;;;;;;;7369240;19;789;-67
2023/04/01 11:16:49;;;;;;;;;;;;;;;;;;7367271;19;1369;-66
2023/04/01 11:19:17;;;;;;;;;;;;;;;;;;7368801;19;814;-68
2023/04/01 11:21:45;;;;;;;;;;;;;;;;;;7369324;19;813;-66
2023/04/01 11:24:14;;;;;;;;;;;;;;;;;;7368468;19;826;-68
2023/04/01 11:26:51;;;;;;;;;;;;;;;;;;7367074;19;1862;-67
2023/04/01 11:29:31;;;;;;;;;;;;;;;;;;7366085;19;804;-68
2023/04/01 11:32:04;;;;;;;;;;;;;;;;;;7367727;19;723;-68
2023/04/01 11:34:32;;;;;;;;;;;;;;;;;;7368146;19;780;-68
2023/04/01 11:37:02;;;;;;;;;;;;;;;;;;7367027;19;1288;-69
2023/04/01 11:39:32;;;;;;;;;;;;;;;;;;7366963;19;760;-68
2023/04/01 11:42:03;;;;;;;;;;;;;;;;;;7370438;19;783;-68
2023/04/01 11:44:54;;;;;;;;;;;;;;;;;;7368696;19;1183;-68
2023/04/01 11:47:32;;;;;;;;;;;;;;;;;;7364955;19;1860;-68
2023/04/01 11:50:01;;;;;;;;;;;;;;;;;;7366532;19;836;-69
2023/04/01 11:52:39;;;;;;;;;;;;;;;;;;7368146;19;724;-68
2023/04/01 11:55:07;;;;;;;;;;;;;;;;;;7368803;19;818;-69
2023/04/01 11:57:36;;;;;;;;;;;;;;;;;;7367306;19;1349;-67
2023/04/01 12:00:05;;;;;;;;;;;;;;;;;;7368553;19;838;-67
2023/04/01 12:02:42;;;;;;;;;;;;;;;;;;7368703;19;711;-67
2023/04/01 12:05:11;;;;;;;;;;;;;;;;;;7369201;19;821;-68
2023/04/01 12:07:39;;;;;;;;;;;;;;;;;;7366448;19;1850;-67
2023/04/01 12:10:07;;;;;;;;;;;;;;;;;;7369141;19;805;-68
2023/04/01 12:12:35;;;;;;;;;;;;;;;;;;7368599;19;786;-69
2023/04/01 12:15:03;;;;;;;;;;;;;;;;;;7368452;19;814;-66
2023/04/01 12:17:32;;;;;;;;;;;;;;;;;;7364242;19;1309;-64
2023/04/01 12:20:00;;;;;;;;;;;;;;;;;;7372882;19;1339;-67
2023/04/01 12:22:28;;;;;;;;;;;;;;;;;;7368547;19;813;-67
2023/04/01 12:24:56;;;;;;;;;;;;;;;;;;7368060;19;847;-68
2023/04/01 12:27:24;;;;;;;;;;;;;;;;;;7365183;19;1841;-67
2023/04/01 12:29:53;;;;;;;;;;;;;;;;;;7367812;19;799;-67
2023/04/01 12:32:21;;;;;;;;;;;;;;;;;;7366743;19;818;-66
2023/04/01 12:34:49;;;;;;;;;;;;;;;;;;7368836;19;818;-64
2023/04/01 12:37:17;;;;;;;;;;;;;;;;;;7366994;19;1293;-68
2023/04/01 12:39:45;;;;;;;;;;;;;;;;;;7367152;19;1246;-67
2023/04/01 12:42:13;;;;;;;;;;;;;;;;;;7368616;19;799;-68
2023/04/01 12:44:41;;;;;;;;;;;;;;;;;;7371166;19;802;-68
2023/04/01 12:47:10;;;;;;;;;;;;;;;;;;7371807;19;1828;-68
2023/04/01 12:49:38;;;;;;;;;;;;;;;;;;7371687;19;818;-69
2023/04/01 12:52:06;;;;;;;;;;;;;;;;;;7371816;19;769;-68
2023/04/01 12:54:34;;;;;;;;;;;;;;;;;;7373628;19;797;-68
2023/04/01 12:57:02;;;;;;;;;;;;;;;;;;7371796;19;1262;-69
2023/04/01 12:59:30;;;;;;;;;;;;;;;;;;7372632;19;770;-69
2023/04/01 13:01:58;;;;;;;;;;;;;;;;;;7374547;19;778;-67
2023/04/01 13:04:27;;;;;;;;;;;;;;;;;;7373497;19;872;-67
2023/04/01 13:06:55;;;;;;;;;;;;;;;;;;7370753;19;1842;-69
2023/04/01 13:09:23;;;;;;;;;;;;;;;;;;7374406;19;683;-69
2023/04/01 13:11:51;;;;;;;;;;;;;;;;;;7371724;19;848;-69
2023/04/01 13:14:19;;;;;;;;;;;;;;;;;;7367506;19;756;-69
2023/04/01 13:16:47;;;;;;;;;;;;;;;;;;7366734;19;1274;-70
2023/04/01 13:19:15;;;;;;;;;;;;;;;;;;7366907;19;841;-69
2023/04/01 13:21:44;;;;;;;;;;;;;;;;;;7367605;19;822;-68
2023/04/01 13:24:12;;;;;;;;;;;;;;;;;;7367428;19;813;-69
2023/04/01 13:26:40;;;;;;;;;;;;;;;;;;7366351;19;1852;-69
2023/04/01 13:29:08;;;;;;;;;;;;;;;;;;7366684;19;825;-70
2023/04/01 13:31:36;;;;;;;;;;;;;;;;;;7366378;19;865;-69
2023/04/01 13:34:04;;;;;;;;;;;;;;;;;;7365558;19;819;-68
2023/04/01 13:36:32;;;;;;;;;;;;;;;;;;7364740;19;1348;-65
2023/04/01 13:39:01;;;;;;;;;;;;;;;;;;7364929;19;803;-66
2023/04/01 13:41:29;;;;;;;;;;;;;;;;;;7366996;19;801;-66
2023/04/01 13:43:57;;;;;;;;;;;;;;;;;;7366358;19;802;-65
2023/04/01 13:46:25;;;;;;;;;;;;;;;;;;7365047;19;1829;-65
2023/04/01 13:48:53;;;;;;;;;;;;;;;;;;7364965;19;782;-65
2023/04/01 13:51:21;;;;;;;;;;;;;;;;;;7365274;19;918;-66
2023/04/01 13:53:49;;;;;;;;;;;;;;;;;;7363112;19;861;-67
2023/04/01 13:56:18;;;;;;;;;;;;;;;;;;7365311;19;1301;-66
2023/04/01 13:58:46;;;;;;;;;;;;;;;;;;7365394;19;870;-67
2023/04/01 14:01:14;;;;;;;;;;;;;;;;;;7366180;19;1735;-67
2023/04/01 14:03:42;;;;;;;;;;;;;;;;;;7364452;19;822;-67
2023/04/01 14:06:10;;;;;;;;;;;;;;;;;;7364438;19;1842;-69
2023/04/01 14:08:38;;;;;;;;;;;;;;;;;;7365043;19;770;-68
2023/04/01 14:11:07;;;;;;;;;;;;;;;;;;7367378;19;887;-67
2023/04/01 14:13:35;;;;;;;;;;;;;;;;;;7365598;19;922;-69
2023/04/01 14:16:03;;;;;;;;;;;;;;;;;;7365432;19;1309;-68
2023/04/01 14:18:31;;;;;;;;;;;;;;;;;;7364727;19;869;-69
2023/04/01 14:20:59;;;;;;;;;;;;;;;;;;7367994;19;1346;-68
2023/04/01 14:23:27;;;;;;;;;;;;;;;;;;7365027;19;850;-69
2023/04/01 14:25:55;;;;;;;;;;;;;;;;;;7365079;19;1293;-68
2023/04/01 14:28:23;;;;;;;;;;;;;;;;;;7362022;19;928;-68
2023/04/01 14:30:52;;;;;;;;;;;;;;;;;;7364603;19;918;-69
2023/04/01 14:33:20;;;;;;;;;;;;;;;;;;7364948;19;843;-66
2023/04/01 14:35:48;;;;;;;;;;;;;;;;;;7364170;19;823;-66
2023/04/01 14:38:16;;;;;;;;;;;;;;;;;;7364571;19;813;-67
2023/04/01 14:40:44;;;;;;;;;;;;;;;;;;7363618;19;817;-67
2023/04/01 14:43:13;;;;;;;;;;;;;;;;;;7364747;19;834;-67
2023/04/01 14:45:41;;;;;;;;;;;;;;;;;;7364037;19;818;-68
2023/04/01 14:48:09;;;;;;;;;;;;;;;;;;7360016;19;1872;-67
2023/04/01 14:50:37;;;;;;;;;;;;;;;;;;7363838;19;802;-67
2023/04/01 14:53:05;;;;;;;;;;;;;;;;;;7363705;19;850;-68
2023/04/01 14:55:34;;;;;;;;;;;;;;;;;;7365138;19;838;-70
2023/04/01 14:58:02;;;;;;;;;;;;;;;;;;7361350;19;1351;-69
2023/04/01 15:00:30;;;;;;;;;;;;;;;;;;7366028;19;846;-71
2023/04/01 15:03:02;;;;;;;;;;;;;;;;;;7363435;19;863;-69
2023/04/01 15:05:30;;;;;;;;;;;;;;;;;;7362514;19;799;-68
2023/04/01 15:07:58;;;;;;;;;;;;;;;;;;7361150;19;1842;-68
2023/04/01 15:10:26;;;;;;;;;;;;;;;;;;7364799;19;817;-69
2023/04/01 15:12:54;;;;;;;;;;;;;;;;;;7364203;19;776;-69
2023/04/01 15:15:22;;;;;;;;;;;;;;;;;;7363620;19;774;-69
2023/04/01 15:17:52;;;;;;;;;;;;;;;;;;7361177;19;1337;-69
2023/04/01 15:20:20;;;;;;;;;;;;;;;;;;7363325;19;834;-68
2023/04/01 15:22:48;;;;;;;;;;;;;;;;;;7363859;19;805;-68
2023/04/01 15:25:16;;;;;;;;;;;;;;;;;;7363422;19;856;-69
2023/04/01 15:27:44;;;;;;;;;;;;;;;;;;7360139;19;1842;-69
2023/04/01 15:30:12;;;;;;;;;;;;;;;;;;7363730;19;917;-69
2023/04/01 15:32:41;;;;;;;;;;;;;;;;;;7364181;19;945;-70
2023/04/01 15:35:09;;;;;;;;;;;;;;;;;;7364467;19;903;-72
2023/04/01 15:37:38;;;;;;;;;;;;;;;;;;7360336;19;1369;-70
2023/04/01 15:40:06;;;;;;;;;;;;;;;;;;7364717;19;771;-67
2023/04/01 15:42:34;;;;;;;;;;;;;;;;;;7364436;19;770;-68
2023/04/01 15:45:03;;;;;;;;;;;;;;;;;;7361752;19;822;-69
2023/04/01 15:47:31;;;;;;;;;;;;;;;;;;7361501;19;1862;-65
2023/04/01 15:49:59;;;;;;;;;;;;;;;;;;7363007;19;886;-69
2023/04/01 15:52:27;;;;;;;;;;;;;;;;;;7370092;19;744;-70
2023/04/01 15:54:55;;;;;;;;;;;;;;;;;;7369954;19;811;-71
2023/04/01 15:57:24;;;;;;;;;;;;;;;;;;7368331;19;1235;-70
2023/04/01 15:59:52;;;;;;;;;;;;;;;;;;7369860;19;837;-71
2023/04/01 16:02:20;;;;;;;;;;;;;;;;;;7372585;19;793;-71
2023/04/01 16:04:50;;;;;;;;;;;;;;;;;;7377120;19;805;-71
2023/04/01 16:07:18;;;;;;;;;;;;;;;;;;7374510;19;1876;-70
2023/04/01 16:09:46;;;;;;;;;;;;;;;;;;7369007;19;823;-71
2023/04/01 16:12:14;;;;;;;;;;;;;;;;;;7369596;19;886;-71
2023/04/01 16:14:42;;;;;;;;;;;;;;;;;;7380476;19;824;-72
2023/04/01 16:17:11;;;;;;;;;;;;;;;;;;7384468;19;1348;-71
2023/04/01 16:19:39;;;;;;;;;;;;;;;;;;7389687;19;1078;-69
2023/04/01 16:22:07;;;;;;;;;;;;;;;;;;7394206;19;835;-70
2023/04/01 16:24:36;;;;;;;;;;;;;;;;;;7397279;19;767;-71
2023/04/01 16:27:04;;;;;;;;;;;;;;;;;;7370249;19;1846;-69
2023/04/01 16:29:32;;;;;;;;;;;;;;;;;;7389984;19;830;-71
2023/04/01 16:32:00;;;;;;;;;;;;;;;;;;7387319;19;853;-71
2023/04/01 16:34:28;;;;;;;;;;;;;;;;;;7382534;19;942;-71
2023/04/01 16:36:56;;;;;;;;;;;;;;;;;;7372656;19;1310;-71
2023/04/01 16:39:25;;;;;;;;;;;;;;;;;;7368892;19;821;-71
2023/04/01 16:41:53;;;;;;;;;;;;;;;;;;7371907;19;834;-71
2023/04/01 16:44:21;;;;;;;;;;;;;;;;;;7376071;19;929;-69
2023/04/01 16:46:49;;;;;;;;;;;;;;;;;;7376661;19;1842;-70
2023/04/01 16:49:17;;;;;;;;;;;;;;;;;;7375106;19;801;-71
2023/04/01 16:51:46;;;;;;;;;;;;;;;;;;7377129;19;1234;-71
2023/04/01 16:54:14;;;;;;;;;;;;;;;;;;7368789;19;808;-71
2023/04/01 16:56:42;;;;;;;;;;;;;;;;;;7375954;19;1280;-70
2023/04/01 16:59:11;;;;;;;;;;;;;;;;;;7376511;19;856;-68
2023/04/01 17:01:39;;;;;;;;;;;;;;;;;;7376389;19;853;-69
2023/04/01 17:04:07;;;;;;;;;;;;;;;;;;7367607;19;841;-70
2023/04/01 17:06:36;;;;;;;;;;;;;;;;;;7371913;19;1328;-69
2023/04/01 17:09:04;;;;;;;;;;;;;;;;;;7376103;19;1860;-70
2023/04/01 17:11:32;;;;;;;;;;;;;;;;;;7383923;19;844;-70
2023/04/01 17:14:00;;;;;;;;;;;;;;;;;;7368556;19;781;-70
2023/04/01 17:16:29;;;;;;;;;;;;;;;;;;7371080;19;1304;-69
2023/04/01 17:18:57;;;;;;;;;;;;;;;;;;7373067;19;801;-69
2023/04/01 17:21:25;;;;;;;;;;;;;;;;;;7369779;19;842;-68
2023/04/01 17:23:54;;;;;;;;;;;;;;;;;;7373545;19;1307;-69
2023/04/01 17:26:23;;;;;;;;;;;;;;;;;;7374720;19;1313;-70
2023/04/01 17:28:51;;;;;;;;;;;;;;;;;;7367221;19;1849;-71
2023/04/01 17:31:20;;;;;;;;;;;;;;;;;;7366916;19;907;-69
2023/04/01 17:33:48;;;;;;;;;;;;;;;;;;7368282;19;812;-71